Airfield :
LOGIN :

Register | Disclaimer

   EN    FR    IT 

 










Legend :    VFR   Marginal VFR   IFR   Intensive IFR   Very Intensive IFR
Visi :
Ceiling :
>= 8 km
>= 3000ft
5 to 8 km
1000 to 3000 ft
1500m to 5 km
500 to 1000 ft
800 to 1500m
200 to 500 ft
< 800m
< 200 ft
Symbols :   Thunderstorms  Fog  Heavy snow  Heavy precipitations  Wind > 20 kt
SIGMETs :     Misc.  Thunderstorms  Icing  Turbulence  Mountain Waves  Volcanic Ashes






- Airport Elevation : 13 ft
- IATA code : LYX


EGMD - Lydd

CURRENT METAR :
  • 271820Z 25010KT 9999 FEW015 BKN020 07/07 Q0995

EXPIRED METARs :
  • 271750Z 24010KT 9999 -RA FEW012 BKN031 08/07 Q0996
  • 271720Z 24013KT 8000 -RA FEW009 BKN037 08/07 Q0996 RERA
  • 271650Z 24022KT 7000 SHRA FEW009 BKN014 08/07 Q0997
  • 271620Z 21022KT 7000 SHRA SCT014 SCT019 BKN024 09/08 Q0997
  • 271550Z 19016KT 7000 -RA SCT015 BKN033 10/09 Q0997

TAF TAF EGMD
Valid from the 27 at 18:00 until the 28 at 03:00 UTC


271659Z 2718/2803 22015KT 9999 FEW012
TEMPO 2718/2803 7000 SHRA BKN012
PROB40
TEMPO 2718/2803 22015G25KT 4000 +SHRA BKN009CB
ATIS : +44 1797 322 422



MET'MAP, your aeronautical weather chart ! - Copyright ORBIFLY December 2007 - Disclaimer

ORBIFLY MET'MAP TEAM :

Programming & Development : Alexandra Zaïnal
Concept & original design : Baudouin d'Aumeries
Assistance for programming : Marc-Olivier Méhu
Technical & hardware support : Manuel Goepfert

Contact : metmap@orbifly.com




SOURCES & CREDITS :

   NOAA